.
WxDataArchive / Data Records for 2015-06-28
2015-06-27 June 2015 2015-06-29

Data Records for Sunday, 28 June 2015

Time	Temp	Chill	HIndex	Humid	Dewpt	 Wind 	HiWind	WindDir	Rain 	Barom
-----	----	-----	------	-----	-----	------	------	-------	-----	-----
00:00	62.7	62.7	62.7	73	53.9	1	3	315	0.00	29.828 
00:05	62.7	62.7	62.7	73	53.9	1	3	315	0.00	29.828 
00:10	62.7	62.7	62.7	73	53.9	2	3	315	0.00	29.828 
00:15	62.6	62.6	62.6	73	53.8	1	4	315	0.00	29.828 
00:20	62.4	62.4	62.4	73	53.6	2	5	292	0.00	29.828 
00:25	62.3	62.3	62.3	74	53.9	1	4	292	0.00	29.828 
00:30	62.0	62.0	62.0	75	54.0	1	2	292	0.00	29.828 
00:35	61.6	61.6	61.6	76	54.0	0	2	292	0.00	29.828 
00:40	61.3	61.3	61.3	77	54.0	0	3	292	0.00	29.828 
00:45	61.2	61.2	61.2	77	53.9	1	4	292	0.00	29.830 
00:50	61.0	61.0	61.0	78	54.1	1	3	292	0.00	29.830 
00:55	61.0	61.0	61.0	78	54.1	0	3	292	0.00	29.830 
01:00	60.9	60.9	60.9	78	54.0	0	2	292	0.00	29.827 
01:05	60.9	60.9	60.9	78	54.0	1	3	292	0.00	29.827 
01:10	60.9	60.9	60.9	77	53.6	1	3	292	0.00	29.827 
01:15	60.9	60.9	60.9	77	53.6	1	3	292	0.00	29.824 
01:20	60.9	60.9	60.9	77	53.6	0	1	292	0.00	29.824 
01:25	60.9	60.9	60.9	77	53.6	1	4	292	0.00	29.824 
01:30	60.7	60.7	60.7	77	53.4	1	2	315	0.00	29.825 
01:35	60.5	60.5	60.5	78	53.6	0	2	315	0.00	29.825 
01:40	60.5	60.5	60.5	78	53.6	1	3	315	0.00	29.825 
01:45	60.4	60.4	60.4	79	53.9	1	2	315	0.00	29.826 
01:50	60.2	60.2	60.2	79	53.7	0	2	315	0.00	29.826 
01:55	60.1	60.1	60.1	79	53.6	1	3	315	0.00	29.826 
02:00	60.1	60.1	60.1	80	53.9	1	2	315	0.00	29.821 
02:05	59.9	59.9	59.9	80	53.7	1	2	315	0.00	29.821 
02:10	59.9	59.9	59.9	80	53.7	0	2	315	0.00	29.821 
02:15	59.8	59.8	59.8	80	53.6	1	3	315	0.00	29.818 
02:20	59.8	59.8	59.8	80	53.6	1	3	315	0.00	29.818 
02:25	59.6	59.6	59.6	80	53.4	1	3	315	0.00	29.818 
02:30	59.6	59.6	59.6	80	53.4	1	4	315	0.00	29.820 
02:35	59.6	59.6	59.6	80	53.4	1	3	315	0.00	29.820 
02:40	59.6	59.6	59.6	80	53.4	1	2	315	0.00	29.820 
02:45	59.5	59.5	59.5	80	53.3	1	4	315	0.00	29.821 
02:50	59.3	59.3	59.3	80	53.1	1	3	315	0.00	29.821 
02:55	59.3	59.3	59.3	81	53.5	0	2	315	0.00	29.821 
03:00	59.2	59.2	59.2	81	53.4	1	3	315	0.00	29.820 
03:05	59.2	59.2	59.2	81	53.4	0	2	315	0.00	29.820 
03:10	59.0	59.0	59.0	81	53.2	1	3	315	0.00	29.820 
03:15	59.0	59.0	59.0	81	53.2	1	3	315	0.00	29.815 
03:20	58.9	58.9	58.9	81	53.1	1	3	315	0.00	29.815 
03:25	58.9	58.9	58.9	81	53.1	1	3	315	0.00	29.815 
03:30	58.9	58.9	58.9	81	53.1	1	4	315	0.00	29.811 
03:35	58.9	58.9	58.9	81	53.1	1	3	315	0.00	29.811 
03:40	58.7	58.7	58.7	81	52.9	1	3	315	0.00	29.811 
03:45	58.6	58.6	58.6	81	52.8	1	3	315	0.00	29.809 
03:50	58.4	58.4	58.4	81	52.6	1	4	315	0.00	29.809 
03:55	58.4	58.4	58.4	81	52.6	1	3	315	0.00	29.809 
04:00	58.4	58.4	58.4	81	52.6	1	5	270	0.00	29.814 
04:05	58.3	58.3	58.3	81	52.5	1	3	270	0.00	29.814 
04:10	58.3	58.3	58.3	81	52.5	0	3	270	0.00	29.814 
04:15	58.1	58.1	58.1	81	52.3	1	3	270	0.00	29.813 
04:20	58.1	58.1	58.1	81	52.3	1	3	270	0.00	29.813 
04:25	58.0	58.0	58.0	81	52.2	1	3	270	0.00	29.813 
04:30	58.0	58.0	58.0	81	52.2	1	3	270	0.00	29.814 
04:35	58.0	58.0	58.0	81	52.2	0	1	270	0.00	29.814 
04:40	57.8	57.8	57.8	81	52.0	0	1	270	0.00	29.814 
04:45	57.6	57.6	57.6	81	51.8	0	3	270	0.00	29.816 
04:50	57.6	57.6	57.6	81	51.8	1	2	270	0.00	29.816 
04:55	57.6	57.6	57.6	81	51.8	0	1	270	0.00	29.816 
05:00	57.6	57.6	57.6	81	51.8	0	2	270	0.00	29.820 
05:05	57.6	57.6	57.6	81	51.8	1	3	270	0.00	29.820 
05:10	57.6	57.6	57.6	81	51.8	0	2	270	0.00	29.820 
05:15	57.6	57.6	57.6	81	51.8	0	1	270	0.00	29.827 
05:20	57.6	57.6	57.6	81	51.8	0	1	270	0.00	29.827 
05:25	57.5	57.5	57.5	81	51.7	0	1	270	0.00	29.827 
05:30	57.5	57.5	57.5	81	51.7	0	2	270	0.00	29.834 
05:35	57.5	57.5	57.5	81	51.7	0	2	270	0.00	29.834 
05:40	57.3	57.3	57.3	81	51.5	0	1	270	0.00	29.834 
05:45	57.2	57.2	57.2	81	51.4	0	1	270	0.00	29.834 
05:50	57.2	57.2	57.2	81	51.4	0	1	270	0.00	29.834 
05:55	57.0	57.0	57.0	82	51.6	1	3	270	0.00	29.834 
06:00	57.0	57.0	57.0	82	51.6	0	2	270	0.00	29.838 
06:05	57.0	57.0	57.0	82	51.6	1	2	270	0.00	29.838 
06:10	56.9	56.9	56.9	82	51.5	0	3	270	0.00	29.838 
06:15	56.9	56.9	56.9	82	51.5	0	2	270	0.00	29.842 
06:20	56.7	56.7	56.7	83	51.6	1	2	270	0.00	29.842 
06:25	56.7	56.7	56.7	83	51.6	0	1	270	0.00	29.842 
06:30	56.6	56.6	56.6	83	51.5	0	2	270	0.00	29.844 
06:35	56.6	56.6	56.6	83	51.5	0	1	270	0.00	29.844 
06:40	56.5	56.5	56.5	83	51.4	0	2	270	0.00	29.844 
06:45	56.6	56.6	56.6	84	51.8	0	1	270	0.00	29.846 
06:50	56.6	56.6	56.6	84	51.8	0	2	270	0.00	29.846 
06:55	56.7	56.7	56.7	83	51.6	1	3	270	0.00	29.846 
07:00	56.9	56.9	56.9	83	51.8	1	3	270	0.00	29.858 
07:05	57.2	57.2	57.2	83	52.1	0	2	270	0.00	29.858 
07:10	57.3	57.3	57.3	82	51.9	0	4	270	0.00	29.858 
07:15	57.6	57.6	57.6	81	51.8	1	2	292	0.00	29.865 
07:20	57.8	57.8	57.8	81	52.0	0	2	292	0.00	29.865 
07:25	58.1	58.1	58.1	81	52.3	1	3	292	0.00	29.865 
07:30	58.3	58.3	58.3	81	52.5	0	3	292	0.00	29.867 
07:35	58.6	58.6	58.6	80	52.4	0	2	292	0.00	29.867 
07:40	58.9	58.9	58.9	80	52.7	0	3	292	0.00	29.867 
07:45	59.2	59.2	59.2	79	52.7	1	4	292	0.00	29.867 
07:50	59.5	59.5	59.5	78	52.6	1	2	292	0.00	29.867 
07:55	59.8	59.8	59.8	77	52.6	1	3	292	0.00	29.867 
08:00	60.1	60.1	60.1	77	52.9	1	4	292	0.00	29.874 
08:05	60.4	60.4	60.4	77	53.2	1	4	292	0.00	29.874 
08:10	60.7	60.7	60.7	77	53.4	1	3	292	0.00	29.874 
08:15	61.0	61.0	61.0	76	53.4	1	3	292	0.00	29.877 
08:20	61.3	61.3	61.3	75	53.3	1	4	292	0.00	29.877 
08:25	61.8	61.8	61.8	75	53.8	0	2	292	0.00	29.877 
08:30	62.0	62.0	62.0	74	53.6	1	4	292	0.00	29.882 
08:35	62.3	62.3	62.3	74	53.9	1	4	292	0.00	29.882 
08:40	62.6	62.6	62.6	73	53.8	1	3	292	0.00	29.882 
08:45	62.9	62.9	62.9	72	53.7	1	4	292	0.00	29.884 
08:50	63.2	63.2	63.2	72	54.0	1	3	292	0.00	29.884 
08:55	63.5	63.5	63.5	72	54.3	1	2	292	0.00	29.884 
09:00	63.7	63.7	63.7	70	53.7	2	5	292	0.00	29.890 
09:05	64.2	64.2	64.2	71	54.6	1	4	315	0.00	29.890 
09:10	64.3	64.3	64.3	69	53.9	1	4	315	0.00	29.890 
09:15	64.3	64.3	64.3	69	53.9	3	5	270	0.00	29.898 
09:20	64.5	64.5	64.5	69	54.1	2	4	292	0.00	29.898 
09:25	64.8	64.8	64.8	69	54.4	2	5	315	0.00	29.898 
09:30	65.0	65.0	65.0	69	54.6	1	4	315	0.00	29.901 
09:35	65.5	65.5	65.5	68	54.7	1	4	315	0.00	29.901 
09:40	65.8	65.8	65.8	66	54.1	2	4	338	0.00	29.901 
09:45	66.0	66.0	66.0	65	53.9	1	4	315	0.00	29.899 
09:50	66.1	66.1	66.1	64	53.6	1	4	315	0.00	29.899 
09:55	66.4	66.4	66.4	65	54.3	1	5	315	0.00	29.899 
10:00	66.8	66.8	66.8	63	53.8	2	5	315	0.00	29.901 
10:05	67.1	67.1	67.1	62	53.6	2	5	270	0.00	29.901 
10:10	67.3	67.3	67.3	63	54.3	1	4	270	0.00	29.901 
10:15	67.8	67.8	67.8	62	54.3	1	4	270	0.00	29.900 
10:20	67.9	67.9	67.9	60	53.5	1	4	270	0.00	29.900 
10:25	68.1	68.1	68.1	59	53.2	1	3	270	0.00	29.900 
10:30	68.3	68.3	68.3	59	53.4	1	4	270	0.00	29.900 
10:35	68.8	68.8	68.8	59	53.9	1	3	270	0.00	29.900 
10:40	68.9	68.9	68.9	57	53.0	1	5	292	0.00	29.900 
10:45	68.9	68.9	68.9	60	54.4	1	3	292	0.00	29.901 
10:50	69.3	69.3	69.3	57	53.4	2	5	292	0.00	29.901 
10:55	69.4	69.4	69.4	57	53.5	2	5	292	0.00	29.901 
11:00	69.4	69.4	69.4	57	53.5	1	5	292	0.00	29.899 
11:05	69.4	69.4	69.4	56	53.0	1	3	292	0.00	29.899 
11:10	69.6	69.6	69.6	56	53.2	2	6	270	0.00	29.899 
11:15	69.8	69.8	69.8	56	53.4	1	5	270	0.00	29.898 
11:20	70.1	70.1	70.1	55	53.2	2	7	270	0.00	29.898 
11:25	70.3	70.3	70.3	57	54.3	2	7	315	0.00	29.898 
11:30	70.1	70.1	70.1	55	53.2	2	5	315	0.00	29.897 
11:35	70.6	70.6	70.6	55	53.6	1	3	315	0.00	29.897 
11:40	70.9	70.9	70.9	54	53.4	1	5	315	0.00	29.897 
11:45	71.1	71.1	71.1	54	53.6	1	4	315	0.00	29.897 
11:50	70.9	70.9	70.9	52	52.4	2	5	315	0.00	29.897 
11:55	70.9	70.9	70.9	53	52.9	1	4	292	0.00	29.897 
12:00	71.3	71.3	71.3	51	52.2	2	5	315	0.00	29.898 
12:05	71.6	71.6	71.6	53	53.5	1	3	315	0.00	29.898 
12:10	72.1	72.1	72.1	54	54.5	1	3	315	0.00	29.898 
12:15	72.3	72.3	72.3	52	53.7	1	5	315	0.00	29.895 
12:20	72.3	72.3	72.3	51	53.1	2	5	270	0.00	29.895 
12:25	72.1	72.1	72.1	52	53.5	1	4	270	0.00	29.895 
12:30	72.3	72.3	72.3	51	53.1	2	4	270	0.00	29.896 
12:35	72.5	72.5	72.5	49	52.2	2	5	270	0.00	29.896 
12:40	72.8	72.8	72.8	52	54.1	1	3	270	0.00	29.896 
12:45	73.0	73.0	73.0	51	53.8	1	3	270	0.00	29.888 
12:50	73.2	73.2	73.2	46	51.2	1	4	338	0.00	29.888 
12:55	73.2	73.2	73.2	47	51.7	1	4	338	0.00	29.888 
13:00	73.2	73.2	73.2	46	51.2	2	4	292	0.00	29.888 
13:05	73.2	73.2	73.2	49	52.9	2	6	270	0.00	29.888 
13:10	73.3	73.3	73.3	50	53.5	1	5	315	0.00	29.888 
13:15	73.5	73.5	73.5	49	53.2	1	5	315	0.00	29.885 
13:20	73.5	73.5	73.5	50	53.7	2	4	292	0.00	29.885 
13:25	73.9	73.9	73.9	47	52.4	1	3	292	0.00	29.885 
13:30	74.0	74.0	74.0	47	52.5	1	4	292	0.00	29.885 
13:35	73.9	73.9	73.9	46	51.8	2	5	292	0.00	29.885 
13:40	74.0	74.0	74.0	46	51.9	1	4	292	0.00	29.885 
13:45	74.0	74.0	74.0	46	51.9	1	4	315	0.00	29.884 
13:50	74.0	74.0	74.0	47	52.5	1	3	315	0.00	29.884 
13:55	74.6	74.6	74.6	47	53.0	1	4	315	0.00	29.884 
14:00	74.7	74.7	74.7	46	52.5	0	2	315	0.00	29.884 
14:05	74.9	74.9	74.9	45	52.1	0	4	315	0.00	29.884 
14:10	75.1	75.1	77.6	43	51.1	1	4	292	0.00	29.884 
14:15	74.6	74.6	74.6	44	51.2	1	3	292	0.00	29.882 
14:20	74.6	74.6	74.6	46	52.4	1	4	292	0.00	29.882 
14:25	75.3	75.3	77.7	47	53.7	1	3	292	0.00	29.882 
14:30	75.6	75.6	77.9	47	53.9	0	2	292	0.00	29.876 
14:35	75.3	75.3	77.7	43	51.2	1	5	338	0.00	29.876 
14:40	74.6	74.6	74.6	44	51.2	1	2	338	0.00	29.876 
14:45	74.9	74.9	74.9	45	52.1	1	4	338	0.00	29.868 
14:50	74.9	74.9	74.9	43	50.9	1	4	112	0.00	29.868 
14:55	74.9	74.9	74.9	44	51.5	1	4	270	0.00	29.868 
15:00	75.6	75.6	77.9	48	54.5	2	5	270	0.00	29.867 
15:05	75.8	75.8	77.8	43	51.7	0	3	270	0.00	29.867 
15:10	76.1	76.1	78.0	43	52.0	1	3	270	0.00	29.867 
15:15	75.8	75.8	77.8	42	51.1	1	4	270	0.00	29.871 
15:20	76.0	76.0	78.0	45	53.1	1	4	292	0.00	29.871 
15:25	76.3	76.3	78.2	47	54.6	0	2	292	0.00	29.871 
15:30	76.7	76.7	78.3	46	54.3	0	1	292	0.00	29.870 
15:35	77.0	77.0	78.2	40	50.8	1	6	292	0.00	29.870 
15:40	76.8	76.8	78.1	40	50.6	1	5	338	0.00	29.870 
15:45	77.0	77.0	78.2	39	50.1	0	2	338	0.00	29.869 
15:50	77.6	77.6	78.5	40	51.3	1	5	338	0.00	29.869 
15:55	77.4	77.4	78.5	41	51.8	1	4	270	0.00	29.869 
16:00	77.2	77.2	78.4	41	51.7	1	5	270	0.00	29.870 
16:05	76.7	76.7	78.1	39	49.9	1	4	315	0.00	29.870 
16:10	76.5	76.5	78.1	41	51.0	1	3	315	0.00	29.870 
16:15	76.5	76.5	78.0	40	50.4	0	2	315	0.00	29.869 
16:20	75.8	75.8	77.7	40	49.7	1	3	315	0.00	29.869 
16:25	75.6	75.6	77.8	44	52.1	0	2	315	0.00	29.869 
16:30	75.8	75.8	77.8	42	51.1	0	2	315	0.00	29.867 
16:35	75.8	75.8	77.8	42	51.1	1	3	315	0.00	29.867 
16:40	75.8	75.8	77.8	42	51.1	1	3	315	0.00	29.867 
16:45	75.6	75.6	77.7	42	50.9	1	3	315	0.00	29.867 
16:50	75.3	75.3	77.7	43	51.2	1	3	315	0.00	29.867 
16:55	75.4	75.4	77.7	43	51.3	0	1	315	0.00	29.867 
17:00	76.0	76.0	77.9	42	51.2	1	3	315	0.00	29.865 
17:05	76.5	76.5	78.0	40	50.4	1	3	315	0.00	29.865 
17:10	76.8	76.8	78.1	39	49.9	0	2	315	0.00	29.865 
17:15	77.0	77.0	78.1	38	49.4	1	3	315	0.00	29.859 
17:20	77.2	77.2	78.2	38	49.6	0	1	315	0.00	29.859 
17:25	77.4	77.4	78.2	36	48.3	0	1	315	0.00	29.859 
17:30	77.6	77.6	78.3	36	48.5	1	3	315	0.00	29.856 
17:35	77.4	77.4	78.3	37	49.1	0	1	315	0.00	29.856 
17:40	77.2	77.2	78.1	36	48.2	0	1	315	0.00	29.856 
17:45	76.8	76.8	77.9	35	47.1	0	1	315	0.00	29.853 
17:50	76.7	76.7	78.1	39	49.9	0	1	315	0.00	29.853 
17:55	76.1	76.1	77.8	38	48.6	0	1	315	0.00	29.853 
18:00	76.0	76.0	77.9	41	50.6	0	1	315	0.00	29.854 
18:05	75.8	75.8	77.7	40	49.7	0	1	315	0.00	29.854 
18:10	75.8	75.8	77.8	41	50.4	0	0	---	0.00	29.854 
18:15	75.8	75.8	77.8	41	50.4	0	1	315	0.00	29.853 
18:20	75.8	75.8	77.7	38	48.4	0	1	315	0.00	29.853 
18:25	76.0	76.0	77.8	39	49.2	0	2	315	0.00	29.853 
18:30	76.3	76.3	77.8	38	48.8	0	2	315	0.00	29.855 
18:35	76.3	76.3	77.9	39	49.5	0	2	315	0.00	29.855 
18:40	76.3	76.3	77.9	40	50.2	0	2	315	0.00	29.855 
18:45	76.1	76.1	77.8	39	49.3	0	2	315	0.00	29.854 
18:50	76.0	76.0	77.8	39	49.2	0	1	315	0.00	29.854 
18:55	75.8	75.8	77.7	38	48.4	0	1	315	0.00	29.854 
19:00	75.4	75.4	77.6	40	49.4	0	0	---	0.00	29.855 
19:05	75.4	75.4	77.6	40	49.4	0	1	315	0.00	29.855 
19:10	75.3	75.3	77.6	41	50.0	0	1	315	0.00	29.855 
19:15	74.9	74.9	74.9	40	48.9	0	0	---	0.00	29.852 
19:20	74.6	74.6	74.6	42	50.0	0	0	---	0.00	29.852 
19:25	74.4	74.4	74.4	42	49.8	0	0	---	0.00	29.852 
19:30	74.4	74.4	74.4	43	50.4	0	0	---	0.00	29.851 
19:35	74.4	74.4	74.4	46	52.3	0	0	---	0.00	29.851 
19:40	74.4	74.4	74.4	42	49.8	0	0	---	0.00	29.851 
19:45	74.4	74.4	74.4	45	51.7	0	0	---	0.00	29.853 
19:50	74.4	74.4	74.4	44	51.0	0	1	315	0.00	29.853 
19:55	74.6	74.6	74.6	45	51.8	0	0	---	0.00	29.853 
20:00	74.4	74.4	74.4	46	52.3	0	1	315	0.00	29.853 
20:05	74.2	74.2	74.2	46	52.1	0	1	315	0.00	29.853 
20:10	74.0	74.0	74.0	47	52.5	0	0	---	0.00	29.853 
20:15	74.0	74.0	74.0	48	53.0	0	1	315	0.00	29.848 
20:20	73.9	73.9	73.9	48	53.0	0	1	315	0.00	29.848 
20:25	73.5	73.5	73.5	48	52.6	0	1	315	0.00	29.848 
20:30	73.3	73.3	73.3	48	52.4	0	1	315	0.00	29.849 
20:35	73.2	73.2	73.2	48	52.3	0	1	315	0.00	29.849 
20:40	73.0	73.0	73.0	48	52.1	0	0	---	0.00	29.849 
20:45	72.8	72.8	72.8	49	52.5	0	0	---	0.00	29.850 
20:50	72.5	72.5	72.5	50	52.8	0	0	---	0.00	29.850 
20:55	72.3	72.3	72.3	50	52.6	0	0	---	0.00	29.850 
21:00	72.0	72.0	72.0	52	53.4	0	0	---	0.00	29.845 
21:05	71.6	71.6	71.6	53	53.5	0	0	---	0.00	29.845 
21:10	71.1	71.1	71.1	53	53.1	0	0	---	0.00	29.845 
21:15	70.8	70.8	70.8	55	53.8	0	0	---	0.00	29.842 
21:20	70.4	70.4	70.4	55	53.4	0	0	---	0.00	29.842 
21:25	70.1	70.1	70.1	56	53.7	0	0	---	0.00	29.842 
21:30	69.6	69.6	69.6	58	54.2	0	0	---	0.00	29.840 
21:35	69.3	69.3	69.3	60	54.8	0	0	---	0.00	29.840 
21:40	68.9	68.9	68.9	61	54.9	0	0	---	0.00	29.840 
21:45	68.6	68.6	68.6	62	55.0	0	0	---	0.00	29.842 
21:50	68.1	68.1	68.1	62	54.6	0	0	---	0.00	29.842 
21:55	67.6	67.6	67.6	65	55.4	0	0	---	0.00	29.842 
22:00	67.3	67.3	67.3	67	56.0	0	0	---	0.00	29.848 
22:05	66.8	66.8	66.8	67	55.5	0	0	---	0.00	29.848 
22:10	66.4	66.4	66.4	67	55.1	0	0	---	0.00	29.848 
22:15	66.3	66.3	66.3	68	55.4	0	0	---	0.00	29.849 
22:20	66.0	66.0	66.0	69	55.5	0	0	---	0.00	29.849 
22:25	65.6	65.6	65.6	71	55.9	0	0	---	0.00	29.849 
22:30	65.5	65.5	65.5	72	56.2	0	0	---	0.00	29.851 
22:35	65.2	65.2	65.2	73	56.3	0	0	---	0.00	29.851 
22:40	65.0	65.0	65.0	73	56.1	0	0	---	0.00	29.851 
22:45	64.7	64.7	64.7	74	56.2	0	0	---	0.00	29.852 
22:50	64.5	64.5	64.5	74	56.0	0	0	---	0.00	29.852 
22:55	64.3	64.3	64.3	76	56.6	0	0	---	0.00	29.852 
23:00	64.2	64.2	64.2	77	56.8	0	0	---	0.00	29.852 
23:05	64.0	64.0	64.0	77	56.6	0	0	---	0.00	29.852 
23:10	63.9	63.9	63.9	77	56.5	0	0	---	0.00	29.852 
23:15	63.7	63.7	63.7	77	56.3	0	0	---	0.00	29.856 
23:20	63.7	63.7	63.7	77	56.3	0	0	---	0.00	29.856 
23:25	63.7	63.7	63.7	78	56.7	0	0	---	0.00	29.856 
23:30	63.5	63.5	63.5	78	56.5	0	0	---	0.00	29.851 
23:35	63.5	63.5	63.5	78	56.5	0	0	---	0.00	29.851 
23:40	63.5	63.5	63.5	79	56.9	0	0	---	0.00	29.851 
23:45	63.5	63.5	63.5	80	57.2	0	0	---	0.00	29.850 
23:50	63.7	63.7	63.7	79	57.1	0	0	---	0.00	29.850 
23:55	63.9	63.9	63.9	78	56.9	0	0	---	0.00	29.850 

CoCoRaHS
IN-AL-39
A2 Web Hosting
Creative Commons License
GoDaddy
search engine by freefind advanced

loaded 2018-11-14 04:31:55 • last modified 2010-11-18 10:43:29
Privacy PolicyDisclaimer
• wx.awcolley.com is powered by PmWiki v.2002016 •
• all content (unless otherwise noted) © 2018 A W Colley